createdAt,value
2018-04-06T00:00:12.206Z,11.50
2018-04-06T00:02:44.586Z,11.50
2018-04-06T00:05:17.066Z,11.40
2018-04-06T00:07:48.206Z,11.40
2018-04-06T00:10:20.886Z,11.40
2018-04-06T00:12:52.527Z,11.40
2018-04-06T00:15:23.887Z,11.20
2018-04-06T00:17:57.387Z,11.20
2018-04-06T00:20:28.967Z,11.30
2018-04-06T00:23:00.269Z,11.20
2018-04-06T00:25:32.646Z,11.10
2018-04-06T00:28:04.606Z,11.00
2018-04-06T00:30:37.946Z,10.90
2018-04-06T00:33:09.246Z,10.90
2018-04-06T00:35:42.546Z,10.90
2018-04-06T00:38:19.766Z,11.00
2018-04-06T00:40:51.186Z,10.90
2018-04-06T00:43:22.326Z,10.90
2018-04-06T00:45:57.876Z,10.80
2018-04-06T00:48:30.947Z,10.80
2018-04-06T00:51:01.787Z,10.80
2018-04-06T00:53:48.286Z,10.80
2018-04-06T00:56:18.527Z,10.80
2018-04-06T00:58:49.368Z,10.70
2018-04-06T01:01:21.326Z,10.70
2018-04-06T01:03:52.566Z,10.80
2018-04-06T01:06:26.666Z,10.80
2018-04-06T01:08:58.527Z,10.80
2018-04-06T01:11:31.731Z,10.80
2018-04-06T01:14:07.066Z,10.80
2018-04-06T01:16:39.726Z,10.80
2018-04-06T01:19:11.609Z,10.80
2018-04-06T01:21:42.647Z,10.80
2018-04-06T01:24:14.386Z,10.80
2018-04-06T01:26:46.252Z,10.90
2018-04-06T01:29:18.986Z,11.00
2018-04-06T01:31:50.486Z,11.00
2018-04-06T01:34:22.546Z,11.00
2018-04-06T01:36:55.646Z,10.90
2018-04-06T01:39:26.886Z,11.00
2018-04-06T01:41:59.966Z,11.00
2018-04-06T01:44:30.906Z,11.00
2018-04-06T01:47:07.586Z,10.90
2018-04-06T01:49:39.966Z,11.00
2018-04-06T01:52:12.226Z,11.00
2018-04-06T01:54:46.327Z,11.10
2018-04-06T01:57:18.213Z,11.00
2018-04-06T01:59:51.186Z,11.00
2018-04-06T02:02:24.366Z,10.90
2018-04-06T02:05:01.767Z,10.90
2018-04-06T02:07:33.426Z,11.00
2018-04-06T02:10:03.986Z,11.00
2018-04-06T02:12:36.326Z,11.00
2018-04-06T02:15:10.327Z,11.00
2018-04-06T02:17:41.970Z,11.00
2018-04-06T02:20:18.552Z,11.10
2018-04-06T02:22:49.946Z,11.10
2018-04-06T02:25:22.051Z,11.00
2018-04-06T02:28:00.467Z,10.90
2018-04-06T02:30:34.306Z,11.00
2018-04-06T02:33:04.410Z,10.90
2018-04-06T02:35:35.467Z,10.90
2018-04-06T02:38:06.168Z,10.90
2018-04-06T02:40:37.327Z,10.80
2018-04-06T02:43:11.130Z,10.80
2018-04-06T02:45:42.692Z,10.60
2018-04-06T02:48:18.827Z,10.60
2018-04-06T02:50:52.847Z,10.50
2018-04-06T02:53:24.386Z,10.50
2018-04-06T02:55:57.287Z,10.40
2018-04-06T02:58:28.986Z,10.30
2018-04-06T03:01:00.090Z,10.30
2018-04-06T03:03:34.387Z,10.20
2018-04-06T03:06:07.386Z,10.20
2018-04-06T03:08:37.307Z,10.10
2018-04-06T03:11:09.366Z,10.10
2018-04-06T03:13:40.287Z,10.20
2018-04-06T03:16:12.367Z,10.10
2018-04-06T03:18:44.726Z,10.10
2018-04-06T03:21:16.786Z,10.00
2018-04-06T03:23:50.086Z,10.00
2018-04-06T03:26:23.806Z,9.90
2018-04-06T03:28:56.374Z,9.90
2018-04-06T03:31:28.747Z,9.90
2018-04-06T03:34:01.926Z,9.90
2018-04-06T03:36:33.066Z,9.80
2018-04-06T03:39:04.106Z,9.60
2018-04-06T03:41:36.507Z,9.40
2018-04-06T03:44:13.468Z,9.40
2018-04-06T03:46:47.486Z,9.30
2018-04-06T03:49:21.486Z,9.20
2018-04-06T03:51:53.546Z,9.30
2018-04-06T03:54:26.347Z,9.30
2018-04-06T03:56:58.506Z,9.30
2018-04-06T03:59:32.966Z,9.20
2018-04-06T04:02:05.812Z,9.20
2018-04-06T04:04:40.426Z,9.20
2018-04-06T04:07:12.027Z,9.30
2018-04-06T04:09:45.987Z,9.20
2018-04-06T04:12:20.707Z,9.10
2018-04-06T04:14:53.086Z,9.20
2018-04-06T04:17:31.987Z,9.30
2018-04-06T04:20:06.527Z,9.20
2018-04-06T04:22:38.086Z,9.10
2018-04-06T04:25:14.987Z,9.10
2018-04-06T04:27:47.326Z,9.20
2018-04-06T04:30:20.426Z,9.10
2018-04-06T04:32:52.187Z,9.10
2018-04-06T04:35:24.846Z,9.10
2018-04-06T04:37:56.631Z,9.10
2018-04-06T04:40:34.927Z,9.00
2018-04-06T04:43:05.866Z,9.00
2018-04-06T04:45:37.987Z,8.90
2018-04-06T04:48:09.008Z,9.00
2018-04-06T04:50:42.466Z,9.00
2018-04-06T04:53:14.239Z,9.00
2018-04-06T04:55:50.486Z,9.00
2018-04-06T04:58:23.986Z,9.00
2018-04-06T05:00:57.166Z,9.00
2018-04-06T05:03:28.728Z,8.90
2018-04-06T05:06:01.206Z,8.80
2018-04-06T05:08:41.567Z,8.80
2018-04-06T05:11:16.906Z,8.70
2018-04-06T05:13:55.207Z,8.70
2018-04-06T05:16:26.475Z,8.70
2018-04-06T05:18:58.207Z,8.70
2018-04-06T05:21:29.467Z,8.60
2018-04-06T05:24:00.287Z,8.60
2018-04-06T05:26:31.647Z,8.50
2018-04-06T05:29:03.389Z,8.50
2018-04-06T05:31:34.846Z,8.60
2018-04-06T05:34:08.006Z,8.60
2018-04-06T05:36:40.406Z,8.60
2018-04-06T05:39:13.286Z,8.60
2018-04-06T05:41:48.426Z,8.70
2018-04-06T05:44:21.307Z,8.60
2018-04-06T05:46:52.666Z,8.80
2018-04-06T05:49:31.807Z,8.80
2018-04-06T05:52:03.966Z,8.80
2018-04-06T05:54:35.907Z,8.80
2018-04-06T05:57:06.546Z,8.80
2018-04-06T05:59:38.726Z,8.90
2018-04-06T06:02:14.366Z,8.90
2018-04-06T06:04:45.807Z,9.00
2018-04-06T06:07:17.266Z,9.00
2018-04-06T06:09:48.768Z,9.10
2018-04-06T06:12:24.666Z,9.10
2018-04-06T06:14:56.946Z,9.10
2018-04-06T06:17:28.589Z,9.10
2018-04-06T06:20:00.547Z,9.10
2018-04-06T06:22:33.006Z,9.20
2018-04-06T06:25:07.146Z,9.10
2018-04-06T06:27:43.392Z,9.20
2018-04-06T06:30:17.106Z,9.10
2018-04-06T06:32:51.546Z,9.20
2018-04-06T06:35:23.386Z,9.30
2018-04-06T06:37:56.487Z,9.40
2018-04-06T06:40:28.846Z,9.50
2018-04-06T06:43:00.013Z,9.60
2018-04-06T06:45:32.014Z,9.70
2018-04-06T06:48:05.353Z,9.80
2018-04-06T06:50:37.727Z,10.00
2018-04-06T06:53:10.306Z,10.10
2018-04-06T06:55:40.811Z,10.30
2018-04-06T06:58:12.986Z,10.40
2018-04-06T07:00:43.726Z,10.40
2018-04-06T07:03:19.510Z,10.70
2018-04-06T07:05:51.127Z,10.80
2018-04-06T07:08:23.213Z,10.80
2018-04-06T07:10:56.026Z,10.80
2018-04-06T07:13:28.166Z,11.00
2018-04-06T07:16:00.066Z,11.20
2018-04-06T07:18:40.026Z,11.20
2018-04-06T07:21:16.726Z,11.00
2018-04-06T07:23:49.046Z,11.00
2018-04-06T07:26:20.970Z,11.10
2018-04-06T07:28:52.510Z,11.20
2018-04-06T07:31:24.366Z,11.30
2018-04-06T07:33:56.425Z,11.50
2018-04-06T07:36:28.706Z,11.80
2018-04-06T07:38:59.827Z,11.80
2018-04-06T07:41:37.646Z,11.90
2018-04-06T07:44:12.472Z,11.90
2018-04-06T07:46:44.327Z,12.00
2018-04-06T07:49:16.796Z,12.00
2018-04-06T07:51:49.889Z,12.00
2018-04-06T07:54:21.529Z,11.90
2018-04-06T07:56:51.149Z,11.90
2018-04-06T07:59:22.610Z,12.00
2018-04-06T08:01:53.330Z,12.10
2018-04-06T08:04:29.050Z,12.20
2018-04-06T08:07:03.210Z,12.40
2018-04-06T08:09:34.550Z,12.50
2018-04-06T08:12:05.390Z,12.60
2018-04-06T08:14:36.335Z,12.60
2018-04-06T08:17:08.395Z,12.60
2018-04-06T08:19:39.514Z,12.70
2018-04-06T08:22:11.684Z,12.70
2018-04-06T08:24:44.024Z,12.70
2018-04-06T08:27:19.305Z,12.80
2018-04-06T08:29:52.805Z,13.00
2018-04-06T08:32:23.944Z,12.90
2018-04-06T08:34:55.721Z,13.30
2018-04-06T08:37:27.974Z,13.30
2018-04-06T08:39:59.734Z,13.30
2018-04-06T08:42:33.055Z,13.30
2018-04-06T08:45:04.276Z,13.40
2018-04-06T08:47:35.821Z,13.40
2018-04-06T08:50:10.022Z,13.70
2018-04-06T08:52:40.554Z,13.70
2018-04-06T08:55:14.781Z,13.70
2018-04-06T08:57:46.541Z,13.70
2018-04-06T09:00:20.042Z,13.80
2018-04-06T09:02:53.516Z,13.90
2018-04-06T09:05:23.623Z,13.80
2018-04-06T09:07:55.057Z,13.90
2018-04-06T09:10:29.717Z,14.00
2018-04-06T09:13:01.045Z,14.00
2018-04-06T09:15:32.752Z,14.00
2018-04-06T09:18:09.052Z,14.00
2018-04-06T09:20:41.251Z,14.00
2018-04-06T09:23:14.650Z,14.10
2018-04-06T09:25:45.992Z,14.20
2018-04-06T09:28:20.622Z,14.10
2018-04-06T09:30:57.801Z,14.10
2018-04-06T09:33:30.043Z,14.10
2018-04-06T09:36:06.041Z,14.10
2018-04-06T09:38:38.603Z,14.10
2018-04-06T09:41:17.627Z,14.00
2018-04-06T09:43:49.288Z,14.20
2018-04-06T09:46:21.156Z,14.20
2018-04-06T09:49:01.035Z,14.40
2018-04-06T09:51:32.236Z,14.50
2018-04-06T09:54:05.020Z,14.40
2018-04-06T09:56:35.241Z,14.40
2018-04-06T09:59:06.901Z,14.20
2018-04-06T10:01:39.580Z,14.20
2018-04-06T10:04:13.580Z,14.20
2018-04-06T10:06:44.621Z,14.30
2018-04-06T10:09:16.181Z,14.30
2018-04-06T10:11:47.320Z,14.40
2018-04-06T10:14:21.441Z,14.60
2018-04-06T10:16:52.681Z,14.70
2018-04-06T10:19:24.948Z,14.90
2018-04-06T10:21:55.799Z,15.20
2018-04-06T10:24:28.159Z,15.20
2018-04-06T10:26:59.516Z,15.20
2018-04-06T10:29:31.157Z,15.20
2018-04-06T10:32:09.350Z,15.40
2018-04-06T10:34:40.411Z,15.50
2018-04-06T10:37:17.283Z,15.70
2018-04-06T10:39:49.103Z,15.90
2018-04-06T10:42:19.368Z,16.10
2018-04-06T10:44:52.660Z,16.20
2018-04-06T10:47:28.059Z,16.10
2018-04-06T10:50:01.042Z,16.10
2018-04-06T10:52:32.340Z,16.30
2018-04-06T10:55:04.393Z,16.40
2018-04-06T10:57:36.451Z,16.50
2018-04-06T11:00:08.840Z,16.60
2018-04-06T11:02:43.661Z,16.80
2018-04-06T11:05:15.509Z,16.90
2018-04-06T11:07:47.487Z,17.10
2018-04-06T11:10:19.747Z,17.10
2018-04-06T11:12:50.911Z,16.90
2018-04-06T11:15:22.647Z,16.90
2018-04-06T11:17:57.276Z,17.00
2018-04-06T11:20:30.256Z,17.20
2018-04-06T11:23:06.247Z,17.50
2018-04-06T11:25:39.311Z,17.60
2018-04-06T11:28:10.548Z,17.60
2018-04-06T11:30:41.068Z,17.80
2018-04-06T11:33:18.689Z,17.80
2018-04-06T11:35:51.768Z,18.00
2018-04-06T11:38:28.939Z,18.20
2018-04-06T11:41:01.068Z,18.40
2018-04-06T11:43:33.588Z,18.30
2018-04-06T11:46:07.608Z,18.70
2018-04-06T11:48:41.508Z,18.80
2018-04-06T11:51:13.770Z,18.70
2018-04-06T11:53:45.829Z,18.60
2018-04-06T11:56:18.069Z,18.60
2018-04-06T11:58:50.170Z,18.40
2018-04-06T12:01:25.708Z,18.40
2018-04-06T12:03:58.483Z,18.40
2018-04-06T12:06:32.508Z,18.30
2018-04-06T12:09:04.566Z,18.10
2018-04-06T12:11:35.305Z,18.40
2018-04-06T12:14:07.107Z,18.60
2018-04-06T12:16:39.239Z,18.70
2018-04-06T12:19:10.788Z,18.50
2018-04-06T12:21:44.686Z,18.60
2018-04-06T12:24:16.645Z,18.70
2018-04-06T12:26:51.891Z,18.90
2018-04-06T12:29:24.568Z,18.80
2018-04-06T12:31:56.067Z,18.60
2018-04-06T12:34:29.066Z,18.50
2018-04-06T12:37:00.767Z,18.50
2018-04-06T12:39:32.927Z,18.60
2018-04-06T12:42:08.067Z,19.00
2018-04-06T12:44:38.694Z,19.00
2018-04-06T12:47:11.986Z,18.70
2018-04-06T12:49:43.345Z,18.70
2018-04-06T12:52:15.606Z,19.00
2018-04-06T12:54:48.485Z,19.30
2018-04-06T12:57:20.966Z,19.40
2018-04-06T12:59:53.066Z,19.70
2018-04-06T13:02:25.206Z,20.10
2018-04-06T13:04:56.026Z,20.40
2018-04-06T13:07:27.986Z,20.70
2018-04-06T13:09:58.860Z,21.00
2018-04-06T13:12:31.906Z,20.70
2018-04-06T13:15:03.070Z,20.90
2018-04-06T13:17:36.453Z,21.20
2018-04-06T13:20:07.690Z,21.30
2018-04-06T13:22:43.072Z,21.50
2018-04-06T13:25:15.192Z,21.50
2018-04-06T13:27:47.133Z,21.80
2018-04-06T13:30:22.207Z,22.10
2018-04-06T13:32:57.327Z,22.10
2018-04-06T13:35:31.446Z,22.30
2018-04-06T13:38:03.208Z,22.30
2018-04-06T13:40:34.047Z,22.40
2018-04-06T13:43:05.906Z,22.20
2018-04-06T13:45:37.968Z,22.10
2018-04-06T13:48:09.226Z,21.70
2018-04-06T13:50:40.967Z,21.50
2018-04-06T13:53:17.080Z,21.20
2018-04-06T13:55:49.306Z,20.80
2018-04-06T13:58:21.370Z,20.30
2018-04-06T14:00:52.645Z,20.00
2018-04-06T14:03:26.406Z,19.80
2018-04-06T14:05:58.386Z,19.60
2018-04-06T14:08:32.587Z,19.40
2018-04-06T14:11:12.096Z,19.20
2018-04-06T14:13:44.006Z,19.20
2018-04-06T14:16:15.645Z,19.00
2018-04-06T14:18:46.977Z,18.70
2018-04-06T14:21:18.339Z,18.40
2018-04-06T14:23:51.514Z,18.20
2018-04-06T14:26:26.044Z,18.10
2018-04-06T14:29:00.349Z,18.10
2018-04-06T14:31:31.409Z,18.00
2018-04-06T14:34:04.128Z,18.00
2018-04-06T14:36:36.968Z,17.90
2018-04-06T14:39:11.795Z,17.80
2018-04-06T14:41:46.088Z,17.90
2018-04-06T14:44:18.390Z,17.90
2018-04-06T14:46:50.750Z,17.70
2018-04-06T14:49:21.892Z,17.70
2018-04-06T14:51:56.711Z,17.70
2018-04-06T14:54:28.068Z,17.70
2018-04-06T14:57:02.609Z,17.60
2018-04-06T14:59:34.472Z,17.60
2018-04-06T15:02:05.298Z,17.60
2018-04-06T15:04:38.578Z,17.60
2018-04-06T15:07:09.628Z,17.60
2018-04-06T15:09:42.930Z,17.60
2018-04-06T15:12:14.108Z,17.50
2018-04-06T15:14:45.006Z,17.60
2018-04-06T15:17:16.758Z,17.50
2018-04-06T15:19:56.289Z,17.50
2018-04-06T15:22:29.578Z,17.60
2018-04-06T15:25:04.304Z,17.50
2018-04-06T15:27:39.103Z,17.50
2018-04-06T15:30:15.203Z,17.50
2018-04-06T15:32:45.843Z,17.50
2018-04-06T15:35:15.343Z,17.50
2018-04-06T15:37:49.243Z,17.50
2018-04-06T15:40:20.783Z,17.50
2018-04-06T15:42:54.127Z,17.40
2018-04-06T15:45:27.384Z,17.40
2018-04-06T15:47:59.355Z,17.40
2018-04-06T15:50:38.132Z,17.40
2018-04-06T15:53:08.486Z,17.40
2018-04-06T15:55:44.630Z,17.40
2018-04-06T15:58:21.523Z,17.40
2018-04-06T16:00:52.363Z,17.30
2018-04-06T16:03:25.260Z,17.30
2018-04-06T16:05:56.812Z,17.30
2018-04-06T16:08:28.954Z,17.40
2018-04-06T16:11:00.209Z,17.40
2018-04-06T16:13:33.165Z,17.30
2018-04-06T16:16:09.245Z,17.40
2018-04-06T16:18:40.588Z,17.40
2018-04-06T16:21:12.372Z,17.40
2018-04-06T16:23:43.412Z,17.30
2018-04-06T16:26:15.674Z,17.20
2018-04-06T16:28:46.811Z,17.10
2018-04-06T16:31:21.112Z,17.20
2018-04-06T16:33:54.012Z,17.10
2018-04-06T16:36:25.772Z,17.20
2018-04-06T16:38:56.611Z,17.10
2018-04-06T16:41:28.371Z,17.20
2018-04-06T16:44:00.332Z,17.20
2018-04-06T16:46:31.359Z,17.10
2018-04-06T16:49:05.672Z,17.10
2018-04-06T16:51:41.631Z,17.10
2018-04-06T16:54:14.171Z,17.10
2018-04-06T16:56:45.133Z,17.10
2018-04-06T16:59:20.491Z,17.10
2018-04-06T17:01:52.351Z,17.10
2018-04-06T17:04:23.151Z,17.20
2018-04-06T17:06:54.998Z,17.20
2018-04-06T17:09:30.291Z,17.10
2018-04-06T17:12:05.731Z,17.00
2018-04-06T17:14:37.595Z,17.00
2018-04-06T17:17:08.951Z,17.00
2018-04-06T17:19:40.812Z,17.00
2018-04-06T17:22:17.771Z,17.00
2018-04-06T17:24:48.511Z,17.00
2018-04-06T17:27:19.135Z,17.00
2018-04-06T17:29:50.133Z,17.00
2018-04-06T17:32:23.071Z,17.00
2018-04-06T17:34:54.612Z,17.00
2018-04-06T17:37:26.131Z,17.00
2018-04-06T17:39:58.559Z,17.00
2018-04-06T17:42:35.016Z,17.00
2018-04-06T17:45:05.845Z,17.00
2018-04-06T17:47:38.165Z,17.00
2018-04-06T17:50:09.129Z,17.00
2018-04-06T17:52:39.888Z,16.90
2018-04-06T17:55:13.792Z,16.90
2018-04-06T17:57:47.387Z,16.80
2018-04-06T18:00:19.586Z,16.80
2018-04-06T18:02:50.165Z,16.70
2018-04-06T18:05:22.246Z,16.60
2018-04-06T18:07:54.106Z,16.50
2018-04-06T18:10:25.265Z,16.50
2018-04-06T18:12:57.025Z,16.40
2018-04-06T18:15:27.865Z,16.20
2018-04-06T18:17:58.786Z,16.10
2018-04-06T18:20:30.446Z,16.10
2018-04-06T18:23:03.425Z,16.00
2018-04-06T18:25:35.105Z,16.00
2018-04-06T18:28:07.266Z,15.90
2018-04-06T18:30:37.785Z,15.90
2018-04-06T18:33:09.745Z,15.80
2018-04-06T18:35:40.886Z,15.80
2018-04-06T18:38:12.545Z,15.80
2018-04-06T18:40:44.106Z,15.70
2018-04-06T18:43:17.285Z,15.70
2018-04-06T18:45:50.064Z,15.60
2018-04-06T18:48:28.685Z,15.50
2018-04-06T18:51:00.545Z,15.40
2018-04-06T18:53:37.145Z,15.40
2018-04-06T18:56:10.707Z,15.30
2018-04-06T18:58:41.645Z,15.40
2018-04-06T19:01:15.147Z,15.30
2018-04-06T19:03:49.064Z,15.30
2018-04-06T19:06:21.646Z,15.20
2018-04-06T19:08:52.565Z,15.20
2018-04-06T19:11:23.405Z,15.10
2018-04-06T19:13:55.145Z,15.10
2018-04-06T19:16:26.320Z,15.10
2018-04-06T19:18:58.350Z,15.10
2018-04-06T19:21:32.485Z,15.00
2018-04-06T19:24:04.186Z,15.10
2018-04-06T19:26:34.966Z,15.00
2018-04-06T19:29:05.805Z,14.90
2018-04-06T19:31:40.027Z,14.90
2018-04-06T19:34:15.686Z,14.80
2018-04-06T19:36:47.747Z,14.80
2018-04-06T19:39:19.086Z,14.70
2018-04-06T19:41:51.246Z,14.70
2018-04-06T19:44:25.666Z,14.70
2018-04-06T19:47:02.148Z,14.60
2018-04-06T19:49:34.214Z,14.50
2018-04-06T19:52:05.147Z,14.50
2018-04-06T19:54:37.927Z,14.50
2018-04-06T19:57:11.726Z,14.50
2018-04-06T19:59:42.766Z,14.40
2018-04-06T20:02:13.626Z,14.40
2018-04-06T20:04:46.473Z,14.40
2018-04-06T20:07:17.848Z,14.30
2018-04-06T20:09:51.845Z,14.30
2018-04-06T20:12:23.606Z,14.30
2018-04-06T20:14:55.145Z,14.20
2018-04-06T20:17:28.546Z,14.20
2018-04-06T20:20:03.686Z,14.20
2018-04-06T20:22:37.066Z,14.10
2018-04-06T20:25:09.448Z,14.10
2018-04-06T20:27:42.628Z,14.20
2018-04-06T20:30:14.351Z,14.20
2018-04-06T20:32:52.706Z,14.10
2018-04-06T20:35:24.567Z,14.00
2018-04-06T20:37:55.706Z,14.00
2018-04-06T20:40:36.066Z,14.00
2018-04-06T20:43:07.427Z,14.00
2018-04-06T20:45:38.865Z,13.90
2018-04-06T20:48:11.947Z,13.90
2018-04-06T20:50:44.186Z,13.90
2018-04-06T20:53:15.286Z,13.80
2018-04-06T20:55:45.485Z,13.80
2018-04-06T20:58:16.451Z,13.70
2018-04-06T21:00:47.465Z,13.60
2018-04-06T21:03:18.973Z,13.60
2018-04-06T21:05:50.205Z,13.50
2018-04-06T21:08:23.767Z,13.50
2018-04-06T21:10:58.167Z,13.40
2018-04-06T21:13:35.885Z,13.40
2018-04-06T21:16:06.306Z,13.40
2018-04-06T21:18:36.846Z,13.30
2018-04-06T21:21:08.785Z,13.30
2018-04-06T21:23:39.945Z,13.20
2018-04-06T21:26:11.685Z,13.20
2018-04-06T21:28:42.725Z,13.20
2018-04-06T21:31:14.286Z,13.20
2018-04-06T21:33:51.565Z,13.10
2018-04-06T21:36:24.766Z,13.10
2018-04-06T21:38:55.705Z,13.00
2018-04-06T21:41:26.345Z,13.00
2018-04-06T21:43:57.185Z,13.00
2018-04-06T21:46:28.525Z,13.00
2018-04-06T21:48:59.665Z,13.00
2018-04-06T21:51:30.286Z,12.90
2018-04-06T21:54:04.185Z,12.90
2018-04-06T21:56:36.165Z,12.90
2018-04-06T21:59:08.645Z,12.80
2018-04-06T22:01:40.285Z,12.80
2018-04-06T22:04:11.646Z,12.80
2018-04-06T22:06:43.085Z,12.80
2018-04-06T22:09:15.194Z,12.80
2018-04-06T22:11:49.667Z,12.70
2018-04-06T22:14:21.325Z,12.60
2018-04-06T22:16:52.766Z,12.60
2018-04-06T22:19:24.025Z,12.50
2018-04-06T22:21:54.745Z,12.50
2018-04-06T22:24:25.685Z,12.60
2018-04-06T22:26:56.186Z,12.60
2018-04-06T22:29:25.961Z,12.60
2018-04-06T22:32:04.745Z,12.60
2018-04-06T22:34:35.686Z,12.60
2018-04-06T22:37:06.525Z,12.60
2018-04-06T22:39:36.145Z,12.70
2018-04-06T22:42:07.786Z,12.60
2018-04-06T22:44:41.185Z,12.60
2018-04-06T22:47:11.705Z,12.60
2018-04-06T22:49:42.966Z,12.40
2018-04-06T22:52:14.826Z,12.40
2018-04-06T22:54:45.544Z,12.40
2018-04-06T22:57:16.484Z,12.40
2018-04-06T22:59:47.025Z,12.30
2018-04-06T23:02:23.185Z,12.30
2018-04-06T23:04:54.527Z,12.20
2018-04-06T23:07:24.645Z,12.20
2018-04-06T23:09:55.164Z,12.20
2018-04-06T23:12:26.307Z,12.10
2018-04-06T23:14:58.166Z,12.10
2018-04-06T23:17:28.806Z,12.10
2018-04-06T23:19:59.845Z,12.00
2018-04-06T23:22:31.285Z,12.10
2018-04-06T23:25:02.325Z,12.10
2018-04-06T23:27:33.685Z,12.10
2018-04-06T23:30:04.927Z,12.10
2018-04-06T23:32:35.245Z,12.10
2018-04-06T23:35:06.265Z,12.10
2018-04-06T23:37:37.845Z,12.10
2018-04-06T23:40:09.905Z,12.00
2018-04-06T23:42:43.306Z,11.90
2018-04-06T23:45:14.765Z,11.80
2018-04-06T23:47:45.905Z,11.90
2018-04-06T23:50:17.871Z,11.80
2018-04-06T23:52:52.205Z,11.70
2018-04-06T23:55:23.525Z,11.70
2018-04-06T23:57:54.207Z,11.70
